sensor_id;sensor_type;location;lat;lon;timestamp;P1;durP1;ratioP1;P2;durP2;ratioP2
11123;SDS011;5616;42.692;23.312;2023-05-10T00:00:29;5.17;;;4.47;;
11123;SDS011;5616;42.692;23.312;2023-05-10T00:02:56;4.90;;;4.40;;
11123;SDS011;5616;42.692;23.312;2023-05-10T00:05:23;5.65;;;4.45;;
11123;SDS011;5616;42.692;23.312;2023-05-10T00:07:50;4.87;;;4.47;;
11123;SDS011;5616;42.692;23.312;2023-05-10T00:10:16;5.77;;;4.97;;
11123;SDS011;5616;42.692;23.312;2023-05-10T00:12:44;5.57;;;4.97;;
11123;SDS011;5616;42.692;23.312;2023-05-10T00:15:11;5.97;;;5.00;;
11123;SDS011;5616;42.692;23.312;2023-05-10T00:17:38;6.93;;;5.17;;
11123;SDS011;5616;42.692;23.312;2023-05-10T00:20:05;5.50;;;5.00;;
11123;SDS011;5616;42.692;23.312;2023-05-10T00:22:33;5.73;;;5.17;;
11123;SDS011;5616;42.692;23.312;2023-05-10T00:25:00;6.68;;;6.07;;
11123;SDS011;5616;42.692;23.312;2023-05-10T00:27:27;7.97;;;6.60;;
11123;SDS011;5616;42.692;23.312;2023-05-10T00:29:56;6.47;;;5.87;;
11123;SDS011;5616;42.692;23.312;2023-05-10T00:32:22;6.87;;;5.97;;
11123;SDS011;5616;42.692;23.312;2023-05-10T00:34:49;7.60;;;6.80;;
11123;SDS011;5616;42.692;23.312;2023-05-10T00:37:16;7.03;;;6.33;;
11123;SDS011;5616;42.692;23.312;2023-05-10T00:39:43;8.00;;;7.30;;
11123;SDS011;5616;42.692;23.312;2023-05-10T00:42:10;7.07;;;6.47;;
11123;SDS011;5616;42.692;23.312;2023-05-10T00:44:37;7.17;;;6.57;;
11123;SDS011;5616;42.692;23.312;2023-05-10T00:47:06;7.23;;;6.50;;
11123;SDS011;5616;42.692;23.312;2023-05-10T00:49:34;7.93;;;7.23;;
11123;SDS011;5616;42.692;23.312;2023-05-10T00:52:01;6.93;;;6.23;;
11123;SDS011;5616;42.692;23.312;2023-05-10T00:54:28;7.07;;;6.40;;
11123;SDS011;5616;42.692;23.312;2023-05-10T00:56:55;7.57;;;6.43;;
11123;SDS011;5616;42.692;23.312;2023-05-10T00:59:22;8.03;;;7.23;;
11123;SDS011;5616;42.692;23.312;2023-05-10T01:01:49;8.37;;;7.10;;
11123;SDS011;5616;42.692;23.312;2023-05-10T01:04:18;8.10;;;7.20;;
11123;SDS011;5616;42.692;23.312;2023-05-10T01:06:51;7.80;;;7.10;;
11123;SDS011;5616;42.692;23.312;2023-05-10T01:09:18;9.13;;;8.00;;
11123;SDS011;5616;42.692;23.312;2023-05-10T01:11:45;8.03;;;7.33;;
11123;SDS011;5616;42.692;23.312;2023-05-10T01:14:12;9.33;;;7.90;;
11123;SDS011;5616;42.692;23.312;2023-05-10T01:16:41;7.90;;;7.17;;
11123;SDS011;5616;42.692;23.312;2023-05-10T01:19:10;8.80;;;8.03;;
11123;SDS011;5616;42.692;23.312;2023-05-10T01:21:51;8.00;;;7.20;;
11123;SDS011;5616;42.692;23.312;2023-05-10T01:27:19;7.30;;;6.60;;
11123;SDS011;5616;42.692;23.312;2023-05-10T01:30:04;7.37;;;6.67;;
11123;SDS011;5616;42.692;23.312;2023-05-10T01:32:40;6.77;;;6.17;;
11123;SDS011;5616;42.692;23.312;2023-05-10T01:35:15;7.27;;;6.67;;
11123;SDS011;5616;42.692;23.312;2023-05-10T01:37:50;6.50;;;5.97;;
11123;SDS011;5616;42.692;23.312;2023-05-10T01:40:23;6.30;;;5.80;;
11123;SDS011;5616;42.692;23.312;2023-05-10T01:43:05;6.77;;;6.17;;
11123;SDS011;5616;42.692;23.312;2023-05-10T01:45:39;6.63;;;6.03;;
11123;SDS011;5616;42.692;23.312;2023-05-10T01:48:14;6.23;;;5.63;;
11123;SDS011;5616;42.692;23.312;2023-05-10T01:50:43;6.20;;;5.70;;
11123;SDS011;5616;42.692;23.312;2023-05-10T01:53:12;5.53;;;5.13;;
11123;SDS011;5616;42.692;23.312;2023-05-10T01:55:45;6.70;;;6.10;;
11123;SDS011;5616;42.692;23.312;2023-05-10T01:58:14;6.30;;;5.80;;
11123;SDS011;5616;42.692;23.312;2023-05-10T02:00:46;6.30;;;5.70;;
11123;SDS011;5616;42.692;23.312;2023-05-10T02:03:17;5.83;;;5.33;;
11123;SDS011;5616;42.692;23.312;2023-05-10T02:05:46;6.17;;;5.67;;
11123;SDS011;5616;42.692;23.312;2023-05-10T02:08:16;6.03;;;5.53;;
11123;SDS011;5616;42.692;23.312;2023-05-10T02:10:45;6.50;;;5.20;;
11123;SDS011;5616;42.692;23.312;2023-05-10T02:13:12;5.73;;;4.90;;
11123;SDS011;5616;42.692;23.312;2023-05-10T02:15:40;6.10;;;4.93;;
11123;SDS011;5616;42.692;23.312;2023-05-10T02:18:10;5.23;;;4.80;;
11123;SDS011;5616;42.692;23.312;2023-05-10T02:20:42;4.90;;;4.50;;
11123;SDS011;5616;42.692;23.312;2023-05-10T02:23:11;5.13;;;4.00;;
11123;SDS011;5616;42.692;23.312;2023-05-10T02:25:38;4.50;;;4.10;;
11123;SDS011;5616;42.692;23.312;2023-05-10T02:28:07;4.23;;;3.90;;
11123;SDS011;5616;42.692;23.312;2023-05-10T02:30:36;4.53;;;4.13;;
11123;SDS011;5616;42.692;23.312;2023-05-10T02:33:04;4.73;;;3.97;;
11123;SDS011;5616;42.692;23.312;2023-05-10T02:35:32;4.30;;;3.90;;
11123;SDS011;5616;42.692;23.312;2023-05-10T02:38:02;5.83;;;4.33;;
11123;SDS011;5616;42.692;23.312;2023-05-10T02:40:32;3.83;;;3.53;;
11123;SDS011;5616;42.692;23.312;2023-05-10T02:42:59;4.00;;;3.67;;
11123;SDS011;5616;42.692;23.312;2023-05-10T02:45:30;3.87;;;3.57;;
11123;SDS011;5616;42.692;23.312;2023-05-10T02:47:58;4.80;;;4.00;;
11123;SDS011;5616;42.692;23.312;2023-05-10T02:50:25;3.80;;;3.40;;
11123;SDS011;5616;42.692;23.312;2023-05-10T02:52:56;4.70;;;3.67;;
11123;SDS011;5616;42.692;23.312;2023-05-10T02:55:30;5.60;;;3.90;;
11123;SDS011;5616;42.692;23.312;2023-05-10T02:58:00;4.30;;;3.90;;
11123;SDS011;5616;42.692;23.312;2023-05-10T03:00:28;4.27;;;3.60;;
11123;SDS011;5616;42.692;23.312;2023-05-10T03:02:55;4.70;;;4.20;;
11123;SDS011;5616;42.692;23.312;2023-05-10T03:05:22;4.13;;;3.73;;
11123;SDS011;5616;42.692;23.312;2023-05-10T03:07:49;4.23;;;3.43;;
11123;SDS011;5616;42.692;23.312;2023-05-10T03:10:17;4.23;;;3.90;;
11123;SDS011;5616;42.692;23.312;2023-05-10T03:12:55;5.50;;;4.00;;
11123;SDS011;5616;42.692;23.312;2023-05-10T03:15:31;7.10;;;4.50;;
11123;SDS011;5616;42.692;23.312;2023-05-10T03:18:05;5.17;;;4.00;;
11123;SDS011;5616;42.692;23.312;2023-05-10T03:20:35;4.30;;;3.90;;
11123;SDS011;5616;42.692;23.312;2023-05-10T03:23:04;4.87;;;4.20;;
11123;SDS011;5616;42.692;23.312;2023-05-10T03:25:36;4.60;;;4.20;;
11123;SDS011;5616;42.692;23.312;2023-05-10T03:28:07;5.43;;;4.27;;
11123;SDS011;5616;42.692;23.312;2023-05-10T03:30:35;4.50;;;3.93;;
11123;SDS011;5616;42.692;23.312;2023-05-10T03:33:05;4.60;;;4.10;;
11123;SDS011;5616;42.692;23.312;2023-05-10T03:35:35;6.13;;;4.53;;
11123;SDS011;5616;42.692;23.312;2023-05-10T03:38:02;5.73;;;4.13;;
11123;SDS011;5616;42.692;23.312;2023-05-10T03:40:29;5.00;;;4.50;;
11123;SDS011;5616;42.692;23.312;2023-05-10T03:42:57;5.17;;;4.23;;
11123;SDS011;5616;42.692;23.312;2023-05-10T03:45:26;4.53;;;4.13;;
11123;SDS011;5616;42.692;23.312;2023-05-10T03:47:53;4.63;;;4.23;;
11123;SDS011;5616;42.692;23.312;2023-05-10T03:50:20;5.13;;;4.00;;
11123;SDS011;5616;42.692;23.312;2023-05-10T03:52:47;4.90;;;4.40;;
11123;SDS011;5616;42.692;23.312;2023-05-10T03:55:14;4.97;;;4.20;;
11123;SDS011;5616;42.692;23.312;2023-05-10T03:57:41;5.70;;;4.17;;
11123;SDS011;5616;42.692;23.312;2023-05-10T04:00:09;4.73;;;4.27;;
11123;SDS011;5616;42.692;23.312;2023-05-10T04:02:44;8.03;;;3.90;;
11123;SDS011;5616;42.692;23.312;2023-05-10T04:05:16;4.77;;;3.97;;
11123;SDS011;5616;42.692;23.312;2023-05-10T04:07:42;4.83;;;3.73;;
11123;SDS011;5616;42.692;23.312;2023-05-10T04:10:10;4.40;;;4.00;;
11123;SDS011;5616;42.692;23.312;2023-05-10T04:12:37;4.70;;;4.10;;
11123;SDS011;5616;42.692;23.312;2023-05-10T04:15:04;4.77;;;4.10;;
11123;SDS011;5616;42.692;23.312;2023-05-10T04:17:32;5.27;;;4.60;;
11123;SDS011;5616;42.692;23.312;2023-05-10T04:20:00;4.57;;;4.17;;
11123;SDS011;5616;42.692;23.312;2023-05-10T04:22:27;5.43;;;4.80;;
11123;SDS011;5616;42.692;23.312;2023-05-10T04:24:54;5.90;;;4.50;;
11123;SDS011;5616;42.692;23.312;2023-05-10T04:27:21;6.47;;;4.47;;
11123;SDS011;5616;42.692;23.312;2023-05-10T04:29:48;5.03;;;4.47;;
11123;SDS011;5616;42.692;23.312;2023-05-10T04:32:15;5.03;;;4.40;;
11123;SDS011;5616;42.692;23.312;2023-05-10T04:34:42;5.77;;;4.33;;
11123;SDS011;5616;42.692;23.312;2023-05-10T04:37:10;4.63;;;4.10;;
11123;SDS011;5616;42.692;23.312;2023-05-10T04:39:37;7.00;;;4.53;;
11123;SDS011;5616;42.692;23.312;2023-05-10T04:42:04;4.93;;;4.43;;
11123;SDS011;5616;42.692;23.312;2023-05-10T04:44:31;7.83;;;4.30;;
11123;SDS011;5616;42.692;23.312;2023-05-10T04:46:58;4.90;;;4.40;;
11123;SDS011;5616;42.692;23.312;2023-05-10T04:49:24;5.80;;;4.23;;
11123;SDS011;5616;42.692;23.312;2023-05-10T04:51:51;8.03;;;4.83;;
11123;SDS011;5616;42.692;23.312;2023-05-10T04:54:19;5.83;;;4.37;;
11123;SDS011;5616;42.692;23.312;2023-05-10T04:56:46;5.17;;;4.20;;
11123;SDS011;5616;42.692;23.312;2023-05-10T04:59:13;7.10;;;5.53;;
11123;SDS011;5616;42.692;23.312;2023-05-10T05:01:40;6.40;;;5.40;;
11123;SDS011;5616;42.692;23.312;2023-05-10T05:04:06;11.03;;;5.63;;
11123;SDS011;5616;42.692;23.312;2023-05-10T05:06:33;7.53;;;5.37;;
11123;SDS011;5616;42.692;23.312;2023-05-10T05:09:00;9.83;;;4.80;;
11123;SDS011;5616;42.692;23.312;2023-05-10T05:11:29;5.73;;;4.60;;
11123;SDS011;5616;42.692;23.312;2023-05-10T05:13:55;8.77;;;6.00;;
11123;SDS011;5616;42.692;23.312;2023-05-10T05:16:24;8.00;;;5.27;;
11123;SDS011;5616;42.692;23.312;2023-05-10T05:18:50;14.23;;;8.17;;
11123;SDS011;5616;42.692;23.312;2023-05-10T05:21:17;7.47;;;6.20;;
11123;SDS011;5616;42.692;23.312;2023-05-10T05:23:46;12.47;;;7.47;;
11123;SDS011;5616;42.692;23.312;2023-05-10T05:26:13;12.10;;;7.77;;
11123;SDS011;5616;42.692;23.312;2023-05-10T05:28:41;17.17;;;8.87;;
11123;SDS011;5616;42.692;23.312;2023-05-10T05:31:08;7.73;;;5.80;;
11123;SDS011;5616;42.692;23.312;2023-05-10T05:33:35;7.03;;;5.10;;
11123;SDS011;5616;42.692;23.312;2023-05-10T05:36:02;6.63;;;5.13;;
11123;SDS011;5616;42.692;23.312;2023-05-10T05:38:31;5.87;;;5.27;;
11123;SDS011;5616;42.692;23.312;2023-05-10T05:40:58;7.50;;;5.47;;
11123;SDS011;5616;42.692;23.312;2023-05-10T05:43:24;7.10;;;5.90;;
11123;SDS011;5616;42.692;23.312;2023-05-10T05:45:53;5.97;;;5.23;;
11123;SDS011;5616;42.692;23.312;2023-05-10T05:48:19;6.27;;;5.67;;
11123;SDS011;5616;42.692;23.312;2023-05-10T05:50:46;6.40;;;5.77;;
11123;SDS011;5616;42.692;23.312;2023-05-10T05:53:13;7.17;;;6.23;;
11123;SDS011;5616;42.692;23.312;2023-05-10T05:55:45;6.83;;;6.10;;
11123;SDS011;5616;42.692;23.312;2023-05-10T05:58:17;6.80;;;5.93;;
11123;SDS011;5616;42.692;23.312;2023-05-10T06:00:44;9.40;;;7.33;;
11123;SDS011;5616;42.692;23.312;2023-05-10T06:03:12;6.57;;;5.87;;
11123;SDS011;5616;42.692;23.312;2023-05-10T06:05:39;8.07;;;6.70;;
11123;SDS011;5616;42.692;23.312;2023-05-10T06:08:06;7.83;;;7.03;;
11123;SDS011;5616;42.692;23.312;2023-05-10T06:10:32;8.67;;;7.10;;
11123;SDS011;5616;42.692;23.312;2023-05-10T06:12:59;9.97;;;7.60;;
11123;SDS011;5616;42.692;23.312;2023-05-10T06:15:26;7.70;;;6.33;;
11123;SDS011;5616;42.692;23.312;2023-05-10T06:17:53;10.07;;;6.97;;
11123;SDS011;5616;42.692;23.312;2023-05-10T06:20:21;8.90;;;7.37;;
11123;SDS011;5616;42.692;23.312;2023-05-10T06:22:48;6.80;;;5.93;;
11123;SDS011;5616;42.692;23.312;2023-05-10T06:25:15;8.73;;;6.43;;
11123;SDS011;5616;42.692;23.312;2023-05-10T06:27:43;9.20;;;6.87;;
11123;SDS011;5616;42.692;23.312;2023-05-10T06:30:10;6.87;;;6.10;;
11123;SDS011;5616;42.692;23.312;2023-05-10T06:32:38;8.17;;;6.63;;
11123;SDS011;5616;42.692;23.312;2023-05-10T06:35:05;6.97;;;5.97;;
11123;SDS011;5616;42.692;23.312;2023-05-10T06:37:34;9.47;;;6.60;;
11123;SDS011;5616;42.692;23.312;2023-05-10T06:40:01;7.40;;;6.03;;
11123;SDS011;5616;42.692;23.312;2023-05-10T06:42:28;19.30;;;11.67;;
11123;SDS011;5616;42.692;23.312;2023-05-10T06:44:55;14.97;;;9.63;;
11123;SDS011;5616;42.692;23.312;2023-05-10T06:47:22;6.80;;;5.50;;
11123;SDS011;5616;42.692;23.312;2023-05-10T06:49:48;6.10;;;5.50;;
11123;SDS011;5616;42.692;23.312;2023-05-10T06:52:15;8.80;;;6.83;;
11123;SDS011;5616;42.692;23.312;2023-05-10T06:54:43;10.83;;;6.33;;
11123;SDS011;5616;42.692;23.312;2023-05-10T06:57:10;9.07;;;5.80;;
11123;SDS011;5616;42.692;23.312;2023-05-10T06:59:37;12.17;;;7.33;;
11123;SDS011;5616;42.692;23.312;2023-05-10T07:02:04;8.57;;;6.70;;
11123;SDS011;5616;42.692;23.312;2023-05-10T07:04:31;10.87;;;6.13;;
11123;SDS011;5616;42.692;23.312;2023-05-10T07:06:58;8.23;;;6.30;;
11123;SDS011;5616;42.692;23.312;2023-05-10T07:09:25;6.20;;;5.23;;
11123;SDS011;5616;42.692;23.312;2023-05-10T07:11:53;7.40;;;5.47;;
11123;SDS011;5616;42.692;23.312;2023-05-10T07:14:20;10.17;;;5.97;;
11123;SDS011;5616;42.692;23.312;2023-05-10T07:16:46;10.03;;;7.70;;
11123;SDS011;5616;42.692;23.312;2023-05-10T07:19:13;6.87;;;5.33;;
11123;SDS011;5616;42.692;23.312;2023-05-10T07:21:40;6.40;;;5.40;;
11123;SDS011;5616;42.692;23.312;2023-05-10T07:24:08;6.90;;;5.80;;
11123;SDS011;5616;42.692;23.312;2023-05-10T07:26:35;8.20;;;6.20;;
11123;SDS011;5616;42.692;23.312;2023-05-10T07:29:03;6.90;;;6.20;;
11123;SDS011;5616;42.692;23.312;2023-05-10T07:31:30;8.57;;;5.70;;
11123;SDS011;5616;42.692;23.312;2023-05-10T07:33:57;8.10;;;6.30;;
11123;SDS011;5616;42.692;23.312;2023-05-10T07:36:23;7.23;;;6.40;;
11123;SDS011;5616;42.692;23.312;2023-05-10T07:38:50;6.67;;;5.80;;
11123;SDS011;5616;42.692;23.312;2023-05-10T07:41:17;8.77;;;6.93;;
11123;SDS011;5616;42.692;23.312;2023-05-10T07:43:44;7.03;;;6.07;;
11123;SDS011;5616;42.692;23.312;2023-05-10T07:46:12;7.27;;;6.20;;
11123;SDS011;5616;42.692;23.312;2023-05-10T07:48:39;9.07;;;6.80;;
11123;SDS011;5616;42.692;23.312;2023-05-10T07:51:06;7.27;;;6.00;;
11123;SDS011;5616;42.692;23.312;2023-05-10T07:53:34;7.97;;;6.30;;
11123;SDS011;5616;42.692;23.312;2023-05-10T07:56:19;12.33;;;9.20;;
11123;SDS011;5616;42.692;23.312;2023-05-10T07:58:47;10.40;;;6.83;;
11123;SDS011;5616;42.692;23.312;2023-05-10T08:01:15;9.63;;;7.03;;
11123;SDS011;5616;42.692;23.312;2023-05-10T08:03:42;9.43;;;7.40;;
11123;SDS011;5616;42.692;23.312;2023-05-10T08:06:09;10.17;;;7.53;;
11123;SDS011;5616;42.692;23.312;2023-05-10T08:08:36;10.93;;;7.30;;
11123;SDS011;5616;42.692;23.312;2023-05-10T08:11:03;24.37;;;17.37;;
11123;SDS011;5616;42.692;23.312;2023-05-10T08:13:30;9.57;;;7.87;;
11123;SDS011;5616;42.692;23.312;2023-05-10T08:15:57;9.83;;;7.00;;
11123;SDS011;5616;42.692;23.312;2023-05-10T08:18:25;12.07;;;7.20;;
11123;SDS011;5616;42.692;23.312;2023-05-10T08:20:52;10.20;;;7.10;;
11123;SDS011;5616;42.692;23.312;2023-05-10T08:23:19;9.60;;;6.77;;
11123;SDS011;5616;42.692;23.312;2023-05-10T08:25:46;10.80;;;7.53;;
11123;SDS011;5616;42.692;23.312;2023-05-10T08:28:12;12.80;;;7.87;;
11123;SDS011;5616;42.692;23.312;2023-05-10T08:30:40;9.77;;;7.30;;
11123;SDS011;5616;42.692;23.312;2023-05-10T08:33:06;13.33;;;9.77;;
11123;SDS011;5616;42.692;23.312;2023-05-10T08:35:35;16.10;;;9.10;;
11123;SDS011;5616;42.692;23.312;2023-05-10T08:38:01;6.97;;;6.37;;
11123;SDS011;5616;42.692;23.312;2023-05-10T08:40:28;9.77;;;7.57;;
11123;SDS011;5616;42.692;23.312;2023-05-10T08:42:57;7.87;;;6.60;;
11123;SDS011;5616;42.692;23.312;2023-05-10T08:45:31;10.57;;;6.17;;
11123;SDS011;5616;42.692;23.312;2023-05-10T08:47:59;7.83;;;7.13;;
11123;SDS011;5616;42.692;23.312;2023-05-10T08:50:28;10.10;;;6.87;;
11123;SDS011;5616;42.692;23.312;2023-05-10T08:52:59;9.57;;;7.13;;
11123;SDS011;5616;42.692;23.312;2023-05-10T08:55:27;8.63;;;6.60;;
11123;SDS011;5616;42.692;23.312;2023-05-10T08:57:55;9.37;;;6.77;;
11123;SDS011;5616;42.692;23.312;2023-05-10T09:00:22;7.57;;;6.23;;
11123;SDS011;5616;42.692;23.312;2023-05-10T09:02:49;7.70;;;6.40;;
11123;SDS011;5616;42.692;23.312;2023-05-10T09:05:16;8.13;;;6.90;;
11123;SDS011;5616;42.692;23.312;2023-05-10T09:07:43;9.60;;;7.33;;
11123;SDS011;5616;42.692;23.312;2023-05-10T09:10:11;8.37;;;7.40;;
11123;SDS011;5616;42.692;23.312;2023-05-10T09:12:40;8.47;;;7.57;;
11123;SDS011;5616;42.692;23.312;2023-05-10T09:15:09;7.77;;;7.03;;
11123;SDS011;5616;42.692;23.312;2023-05-10T09:17:36;8.40;;;7.53;;
11123;SDS011;5616;42.692;23.312;2023-05-10T09:20:06;9.23;;;7.23;;
11123;SDS011;5616;42.692;23.312;2023-05-10T09:22:33;10.17;;;8.23;;
11123;SDS011;5616;42.692;23.312;2023-05-10T09:25:05;9.60;;;8.07;;
11123;SDS011;5616;42.692;23.312;2023-05-10T09:27:34;9.70;;;7.70;;
11123;SDS011;5616;42.692;23.312;2023-05-10T09:30:01;8.97;;;8.07;;
11123;SDS011;5616;42.692;23.312;2023-05-10T09:32:35;8.07;;;6.80;;
11123;SDS011;5616;42.692;23.312;2023-05-10T09:35:07;8.20;;;7.10;;
11123;SDS011;5616;42.692;23.312;2023-05-10T09:37:34;8.60;;;6.67;;
11123;SDS011;5616;42.692;23.312;2023-05-10T09:40:03;7.23;;;6.40;;
11123;SDS011;5616;42.692;23.312;2023-05-10T09:42:31;7.03;;;6.33;;
11123;SDS011;5616;42.692;23.312;2023-05-10T09:45:01;7.40;;;6.70;;
11123;SDS011;5616;42.692;23.312;2023-05-10T09:47:29;8.07;;;6.40;;
11123;SDS011;5616;42.692;23.312;2023-05-10T09:49:57;10.27;;;7.17;;
11123;SDS011;5616;42.692;23.312;2023-05-10T09:52:28;8.93;;;8.03;;
11123;SDS011;5616;42.692;23.312;2023-05-10T09:54:55;8.40;;;7.30;;
11123;SDS011;5616;42.692;23.312;2023-05-10T09:57:23;9.73;;;6.87;;
11123;SDS011;5616;42.692;23.312;2023-05-10T09:59:51;10.97;;;7.67;;
11123;SDS011;5616;42.692;23.312;2023-05-10T10:02:20;8.00;;;7.20;;
11123;SDS011;5616;42.692;23.312;2023-05-10T10:04:54;6.77;;;6.17;;
11123;SDS011;5616;42.692;23.312;2023-05-10T10:07:22;7.67;;;6.20;;
11123;SDS011;5616;42.692;23.312;2023-05-10T10:09:50;7.53;;;6.77;;
11123;SDS011;5616;42.692;23.312;2023-05-10T10:12:18;9.33;;;7.97;;
11123;SDS011;5616;42.692;23.312;2023-05-10T10:14:46;10.80;;;7.20;;
11123;SDS011;5616;42.692;23.312;2023-05-10T10:17:14;7.87;;;6.43;;
11123;SDS011;5616;42.692;23.312;2023-05-10T10:19:43;7.80;;;6.80;;
11123;SDS011;5616;42.692;23.312;2023-05-10T10:22:11;10.27;;;7.53;;
11123;SDS011;5616;42.692;23.312;2023-05-10T10:24:38;9.73;;;6.30;;
11123;SDS011;5616;42.692;23.312;2023-05-10T10:27:12;7.23;;;6.53;;
11123;SDS011;5616;42.692;23.312;2023-05-10T10:29:49;9.10;;;6.93;;
11123;SDS011;5616;42.692;23.312;2023-05-10T10:32:25;9.87;;;6.57;;
11123;SDS011;5616;42.692;23.312;2023-05-10T10:35:00;9.97;;;6.80;;
11123;SDS011;5616;42.692;23.312;2023-05-10T10:37:41;7.27;;;5.53;;
11123;SDS011;5616;42.692;23.312;2023-05-10T10:40:23;5.87;;;5.27;;
11123;SDS011;5616;42.692;23.312;2023-05-10T10:42:53;6.07;;;5.43;;
11123;SDS011;5616;42.692;23.312;2023-05-10T10:45:21;6.13;;;5.40;;
11123;SDS011;5616;42.692;23.312;2023-05-10T10:47:48;8.10;;;5.63;;
11123;SDS011;5616;42.692;23.312;2023-05-10T10:50:18;7.53;;;5.47;;
11123;SDS011;5616;42.692;23.312;2023-05-10T10:52:45;6.73;;;5.30;;
11123;SDS011;5616;42.692;23.312;2023-05-10T10:55:15;9.73;;;5.70;;
11123;SDS011;5616;42.692;23.312;2023-05-10T10:57:45;6.57;;;5.20;;
11123;SDS011;5616;42.692;23.312;2023-05-10T11:00:17;5.93;;;4.93;;
11123;SDS011;5616;42.692;23.312;2023-05-10T11:02:46;9.37;;;5.17;;
11123;SDS011;5616;42.692;23.312;2023-05-10T11:05:25;7.03;;;5.60;;
11123;SDS011;5616;42.692;23.312;2023-05-10T11:08:02;5.83;;;5.30;;
11123;SDS011;5616;42.692;23.312;2023-05-10T11:10:34;12.50;;;7.37;;
11123;SDS011;5616;42.692;23.312;2023-05-10T11:13:01;11.93;;;5.40;;
11123;SDS011;5616;42.692;23.312;2023-05-10T11:15:31;6.63;;;4.93;;
11123;SDS011;5616;42.692;23.312;2023-05-10T11:17:58;6.50;;;5.80;;
11123;SDS011;5616;42.692;23.312;2023-05-10T11:20:28;11.63;;;6.63;;
11123;SDS011;5616;42.692;23.312;2023-05-10T11:23:10;5.97;;;5.00;;
11123;SDS011;5616;42.692;23.312;2023-05-10T11:25:41;5.60;;;5.07;;
11123;SDS011;5616;42.692;23.312;2023-05-10T11:28:09;5.77;;;4.80;;
11123;SDS011;5616;42.692;23.312;2023-05-10T11:30:36;8.57;;;4.57;;
11123;SDS011;5616;42.692;23.312;2023-05-10T11:33:05;6.97;;;5.47;;
11123;SDS011;5616;42.692;23.312;2023-05-10T11:35:37;5.20;;;4.67;;
11123;SDS011;5616;42.692;23.312;2023-05-10T11:38:05;6.00;;;4.53;;
11123;SDS011;5616;42.692;23.312;2023-05-10T11:40:33;5.13;;;4.67;;
11123;SDS011;5616;42.692;23.312;2023-05-10T11:43:00;5.30;;;4.80;;
11123;SDS011;5616;42.692;23.312;2023-05-10T11:45:27;5.60;;;5.10;;
11123;SDS011;5616;42.692;23.312;2023-05-10T11:47:54;8.90;;;5.33;;
11123;SDS011;5616;42.692;23.312;2023-05-10T11:50:21;7.20;;;5.33;;
11123;SDS011;5616;42.692;23.312;2023-05-10T11:52:51;8.37;;;5.80;;
11123;SDS011;5616;42.692;23.312;2023-05-10T11:55:18;11.27;;;7.90;;
11123;SDS011;5616;42.692;23.312;2023-05-10T11:57:45;8.80;;;5.53;;
11123;SDS011;5616;42.692;23.312;2023-05-10T12:00:12;7.97;;;6.23;;
11123;SDS011;5616;42.692;23.312;2023-05-10T12:02:41;6.33;;;5.07;;
11123;SDS011;5616;42.692;23.312;2023-05-10T12:05:08;7.90;;;5.80;;
11123;SDS011;5616;42.692;23.312;2023-05-10T12:07:36;5.40;;;4.90;;
11123;SDS011;5616;42.692;23.312;2023-05-10T12:10:06;6.03;;;5.00;;
11123;SDS011;5616;42.692;23.312;2023-05-10T12:12:37;6.37;;;5.53;;
11123;SDS011;5616;42.692;23.312;2023-05-10T12:15:05;8.80;;;5.17;;
11123;SDS011;5616;42.692;23.312;2023-05-10T12:17:37;7.50;;;5.60;;
11123;SDS011;5616;42.692;23.312;2023-05-10T12:20:13;8.30;;;6.10;;
11123;SDS011;5616;42.692;23.312;2023-05-10T12:22:41;9.00;;;6.23;;
11123;SDS011;5616;42.692;23.312;2023-05-10T12:25:11;6.47;;;5.80;;
11123;SDS011;5616;42.692;23.312;2023-05-10T12:27:38;5.87;;;4.87;;
11123;SDS011;5616;42.692;23.312;2023-05-10T12:30:06;7.83;;;5.67;;
11123;SDS011;5616;42.692;23.312;2023-05-10T12:32:37;6.23;;;5.63;;
11123;SDS011;5616;42.692;23.312;2023-05-10T12:35:04;6.30;;;5.63;;
11123;SDS011;5616;42.692;23.312;2023-05-10T12:37:32;8.00;;;5.67;;
11123;SDS011;5616;42.692;23.312;2023-05-10T12:40:01;7.03;;;5.80;;
11123;SDS011;5616;42.692;23.312;2023-05-10T12:42:31;7.67;;;5.77;;
11123;SDS011;5616;42.692;23.312;2023-05-10T12:44:58;6.20;;;5.30;;
11123;SDS011;5616;42.692;23.312;2023-05-10T12:47:25;7.17;;;5.67;;
11123;SDS011;5616;42.692;23.312;2023-05-10T12:49:52;6.10;;;5.50;;
11123;SDS011;5616;42.692;23.312;2023-05-10T12:52:18;7.53;;;5.83;;
11123;SDS011;5616;42.692;23.312;2023-05-10T12:54:45;5.93;;;5.33;;
11123;SDS011;5616;42.692;23.312;2023-05-10T12:57:12;5.97;;;5.37;;
11123;SDS011;5616;42.692;23.312;2023-05-10T12:59:41;6.20;;;5.60;;
11123;SDS011;5616;42.692;23.312;2023-05-10T13:02:07;7.00;;;5.80;;
11123;SDS011;5616;42.692;23.312;2023-05-10T13:04:35;5.87;;;5.27;;
11123;SDS011;5616;42.692;23.312;2023-05-10T13:07:04;6.27;;;5.37;;
11123;SDS011;5616;42.692;23.312;2023-05-10T13:09:31;6.63;;;5.93;;
11123;SDS011;5616;42.692;23.312;2023-05-10T13:11:58;6.60;;;5.77;;
11123;SDS011;5616;42.692;23.312;2023-05-10T13:14:25;6.50;;;5.87;;
11123;SDS011;5616;42.692;23.312;2023-05-10T13:16:53;7.20;;;5.67;;
11123;SDS011;5616;42.692;23.312;2023-05-10T13:19:20;5.53;;;4.90;;
11123;SDS011;5616;42.692;23.312;2023-05-10T13:21:47;9.33;;;6.20;;
11123;SDS011;5616;42.692;23.312;2023-05-10T13:24:14;9.90;;;6.63;;
11123;SDS011;5616;42.692;23.312;2023-05-10T13:26:40;8.20;;;6.30;;
11123;SDS011;5616;42.692;23.312;2023-05-10T13:29:07;8.23;;;6.47;;
11123;SDS011;5616;42.692;23.312;2023-05-10T13:31:34;9.00;;;7.10;;
11123;SDS011;5616;42.692;23.312;2023-05-10T13:34:03;6.87;;;5.57;;
11123;SDS011;5616;42.692;23.312;2023-05-10T13:36:30;9.87;;;5.40;;
11123;SDS011;5616;42.692;23.312;2023-05-10T13:38:56;6.87;;;5.13;;
11123;SDS011;5616;42.692;23.312;2023-05-10T13:41:23;5.50;;;5.07;;
11123;SDS011;5616;42.692;23.312;2023-05-10T13:43:50;7.07;;;5.60;;
11123;SDS011;5616;42.692;23.312;2023-05-10T13:46:17;5.37;;;4.73;;
11123;SDS011;5616;42.692;23.312;2023-05-10T13:48:43;5.73;;;5.17;;
11123;SDS011;5616;42.692;23.312;2023-05-10T13:51:12;7.10;;;5.30;;
11123;SDS011;5616;42.692;23.312;2023-05-10T13:53:38;6.43;;;5.70;;
11123;SDS011;5616;42.692;23.312;2023-05-10T13:59:07;7.00;;;5.40;;
11123;SDS011;5616;42.692;23.312;2023-05-10T14:01:34;8.80;;;5.17;;
11123;SDS011;5616;42.692;23.312;2023-05-10T14:04:01;7.23;;;5.53;;
11123;SDS011;5616;42.692;23.312;2023-05-10T14:06:29;7.40;;;5.53;;
11123;SDS011;5616;42.692;23.312;2023-05-10T14:08:56;8.43;;;5.63;;
11123;SDS011;5616;42.692;23.312;2023-05-10T14:11:23;10.53;;;6.00;;
11123;SDS011;5616;42.692;23.312;2023-05-10T14:13:50;6.63;;;5.60;;
11123;SDS011;5616;42.692;23.312;2023-05-10T14:16:17;6.57;;;5.30;;
11123;SDS011;5616;42.692;23.312;2023-05-10T14:18:44;7.10;;;5.90;;
11123;SDS011;5616;42.692;23.312;2023-05-10T14:21:11;5.43;;;4.93;;
11123;SDS011;5616;42.692;23.312;2023-05-10T14:23:39;7.17;;;5.20;;
11123;SDS011;5616;42.692;23.312;2023-05-10T14:26:06;6.87;;;5.40;;
11123;SDS011;5616;42.692;23.312;2023-05-10T14:28:33;7.60;;;5.50;;
11123;SDS011;5616;42.692;23.312;2023-05-10T14:30:59;8.23;;;5.30;;
11123;SDS011;5616;42.692;23.312;2023-05-10T14:33:26;5.43;;;4.87;;
11123;SDS011;5616;42.692;23.312;2023-05-10T14:35:53;6.03;;;5.53;;
11123;SDS011;5616;42.692;23.312;2023-05-10T14:38:21;6.50;;;5.23;;
11123;SDS011;5616;42.692;23.312;2023-05-10T14:40:50;12.70;;;5.40;;
11123;SDS011;5616;42.692;23.312;2023-05-10T14:43:16;8.27;;;5.57;;
11123;SDS011;5616;42.692;23.312;2023-05-10T14:45:43;6.03;;;5.43;;
11123;SDS011;5616;42.692;23.312;2023-05-10T14:48:10;8.27;;;5.70;;
11123;SDS011;5616;42.692;23.312;2023-05-10T14:50:40;7.27;;;5.93;;
11123;SDS011;5616;42.692;23.312;2023-05-10T14:56:03;6.03;;;5.43;;
11123;SDS011;5616;42.692;23.312;2023-05-10T14:58:30;8.17;;;5.80;;
11123;SDS011;5616;42.692;23.312;2023-05-10T15:00:57;8.37;;;5.80;;